sensor_id;sensor_type;location;lat;lon;timestamp;P1;durP1;ratioP1;P2;durP2;ratioP2
26654;SDS011;14278;50.784;4.630;2023-04-03T00:01:47;3.60;;;3.30;;
26654;SDS011;14278;50.784;4.630;2023-04-03T00:04:13;4.47;;;2.73;;
26654;SDS011;14278;50.784;4.630;2023-04-03T00:06:42;3.10;;;2.67;;
26654;SDS011;14278;50.784;4.630;2023-04-03T00:09:08;2.83;;;2.60;;
26654;SDS011;14278;50.784;4.630;2023-04-03T00:11:34;4.17;;;3.30;;
26654;SDS011;14278;50.784;4.630;2023-04-03T00:14:00;2.60;;;2.40;;
26654;SDS011;14278;50.784;4.630;2023-04-03T00:16:26;6.50;;;3.37;;
26654;SDS011;14278;50.784;4.630;2023-04-03T00:18:52;5.83;;;3.17;;
26654;SDS011;14278;50.784;4.630;2023-04-03T00:21:18;2.80;;;2.60;;
26654;SDS011;14278;50.784;4.630;2023-04-03T00:23:44;3.33;;;3.03;;
26654;SDS011;14278;50.784;4.630;2023-04-03T00:26:10;2.57;;;2.37;;
26654;SDS011;14278;50.784;4.630;2023-04-03T00:28:36;3.57;;;3.00;;
26654;SDS011;14278;50.784;4.630;2023-04-03T00:31:02;6.97;;;3.03;;
26654;SDS011;14278;50.784;4.630;2023-04-03T00:33:29;3.87;;;3.13;;
26654;SDS011;14278;50.784;4.630;2023-04-03T00:35:55;2.80;;;2.60;;
26654;SDS011;14278;50.784;4.630;2023-04-03T00:38:20;4.57;;;2.80;;
26654;SDS011;14278;50.784;4.630;2023-04-03T00:40:47;2.43;;;2.23;;
26654;SDS011;14278;50.784;4.630;2023-04-03T00:43:15;2.90;;;2.63;;
26654;SDS011;14278;50.784;4.630;2023-04-03T00:46:00;3.33;;;3.03;;
26654;SDS011;14278;50.784;4.630;2023-04-03T00:51:22;2.97;;;2.33;;
26654;SDS011;14278;50.784;4.630;2023-04-03T00:53:54;2.90;;;2.60;;
26654;SDS011;14278;50.784;4.630;2023-04-03T00:56:23;3.70;;;2.83;;
26654;SDS011;14278;50.784;4.630;2023-04-03T00:58:56;3.13;;;2.63;;
26654;SDS011;14278;50.784;4.630;2023-04-03T01:01:30;2.43;;;2.27;;
26654;SDS011;14278;50.784;4.630;2023-04-03T01:04:03;2.33;;;2.20;;
26654;SDS011;14278;50.784;4.630;2023-04-03T01:06:34;2.60;;;2.40;;
26654;SDS011;14278;50.784;4.630;2023-04-03T01:09:02;2.90;;;2.57;;
26654;SDS011;14278;50.784;4.630;2023-04-03T01:11:29;2.50;;;2.33;;
26654;SDS011;14278;50.784;4.630;2023-04-03T01:13:55;3.60;;;2.83;;
26654;SDS011;14278;50.784;4.630;2023-04-03T01:16:21;1.83;;;1.73;;
26654;SDS011;14278;50.784;4.630;2023-04-03T01:18:47;3.17;;;2.40;;
26654;SDS011;14278;50.784;4.630;2023-04-03T01:21:30;3.60;;;2.43;;
26654;SDS011;14278;50.784;4.630;2023-04-03T01:24:11;4.00;;;2.50;;
26654;SDS011;14278;50.784;4.630;2023-04-03T01:27:07;2.43;;;2.23;;
26654;SDS011;14278;50.784;4.630;2023-04-03T01:29:35;2.93;;;2.63;;
26654;SDS011;14278;50.784;4.630;2023-04-03T01:32:02;1.83;;;1.73;;
26654;SDS011;14278;50.784;4.630;2023-04-03T01:34:29;2.47;;;2.17;;
26654;SDS011;14278;50.784;4.630;2023-04-03T01:36:56;2.40;;;2.17;;
26654;SDS011;14278;50.784;4.630;2023-04-03T01:39:22;2.37;;;2.13;;
26654;SDS011;14278;50.784;4.630;2023-04-03T01:41:49;2.53;;;2.33;;
26654;SDS011;14278;50.784;4.630;2023-04-03T01:44:15;5.63;;;2.90;;
26654;SDS011;14278;50.784;4.630;2023-04-03T01:46:41;2.83;;;2.40;;
26654;SDS011;14278;50.784;4.630;2023-04-03T01:49:08;3.70;;;2.73;;
26654;SDS011;14278;50.784;4.630;2023-04-03T01:51:33;2.07;;;1.97;;
26654;SDS011;14278;50.784;4.630;2023-04-03T01:54:00;2.00;;;1.90;;
26654;SDS011;14278;50.784;4.630;2023-04-03T01:56:26;1.83;;;1.73;;
26654;SDS011;14278;50.784;4.630;2023-04-03T01:58:52;4.03;;;3.10;;
26654;SDS011;14278;50.784;4.630;2023-04-03T02:01:18;5.67;;;2.57;;
26654;SDS011;14278;50.784;4.630;2023-04-03T02:03:44;2.60;;;2.40;;
26654;SDS011;14278;50.784;4.630;2023-04-03T02:06:10;4.30;;;2.70;;
26654;SDS011;14278;50.784;4.630;2023-04-03T02:08:36;2.60;;;2.07;;
26654;SDS011;14278;50.784;4.630;2023-04-03T02:11:02;2.10;;;1.93;;
26654;SDS011;14278;50.784;4.630;2023-04-03T02:13:28;2.87;;;2.33;;
26654;SDS011;14278;50.784;4.630;2023-04-03T02:15:54;2.40;;;2.20;;
26654;SDS011;14278;50.784;4.630;2023-04-03T02:18:24;4.20;;;2.60;;
26654;SDS011;14278;50.784;4.630;2023-04-03T02:20:50;5.60;;;2.60;;
26654;SDS011;14278;50.784;4.630;2023-04-03T02:23:15;4.43;;;2.60;;
26654;SDS011;14278;50.784;4.630;2023-04-03T02:25:42;2.37;;;2.17;;
26654;SDS011;14278;50.784;4.630;2023-04-03T02:28:07;2.47;;;2.27;;
26654;SDS011;14278;50.784;4.630;2023-04-03T02:30:36;2.47;;;1.97;;
26654;SDS011;14278;50.784;4.630;2023-04-03T02:33:02;2.07;;;1.97;;
26654;SDS011;14278;50.784;4.630;2023-04-03T02:35:28;3.10;;;2.70;;
26654;SDS011;14278;50.784;4.630;2023-04-03T02:37:54;13.00;;;2.47;;
26654;SDS011;14278;50.784;4.630;2023-04-03T02:40:20;2.70;;;2.20;;
26654;SDS011;14278;50.784;4.630;2023-04-03T02:42:47;5.23;;;1.90;;
26654;SDS011;14278;50.784;4.630;2023-04-03T02:45:12;1.93;;;1.83;;
26654;SDS011;14278;50.784;4.630;2023-04-03T02:47:38;3.47;;;2.33;;
26654;SDS011;14278;50.784;4.630;2023-04-03T02:50:05;1.97;;;1.87;;
26654;SDS011;14278;50.784;4.630;2023-04-03T02:52:30;3.83;;;2.40;;
26654;SDS011;14278;50.784;4.630;2023-04-03T02:54:57;3.67;;;2.63;;
26654;SDS011;14278;50.784;4.630;2023-04-03T02:57:23;3.53;;;2.23;;
26654;SDS011;14278;50.784;4.630;2023-04-03T02:59:48;4.57;;;2.23;;
26654;SDS011;14278;50.784;4.630;2023-04-03T03:02:15;2.67;;;2.47;;
26654;SDS011;14278;50.784;4.630;2023-04-03T03:04:41;2.53;;;2.37;;
26654;SDS011;14278;50.784;4.630;2023-04-03T03:07:07;2.87;;;2.57;;
26654;SDS011;14278;50.784;4.630;2023-04-03T03:09:33;3.57;;;2.40;;
26654;SDS011;14278;50.784;4.630;2023-04-03T03:11:59;2.70;;;2.23;;
26654;SDS011;14278;50.784;4.630;2023-04-03T03:14:25;8.37;;;3.37;;
26654;SDS011;14278;50.784;4.630;2023-04-03T03:16:50;2.47;;;2.37;;
26654;SDS011;14278;50.784;4.630;2023-04-03T03:19:17;2.53;;;2.33;;
26654;SDS011;14278;50.784;4.630;2023-04-03T03:21:43;3.70;;;2.80;;
26654;SDS011;14278;50.784;4.630;2023-04-03T03:24:08;3.33;;;2.53;;
26654;SDS011;14278;50.784;4.630;2023-04-03T03:26:35;2.70;;;2.50;;
26654;SDS011;14278;50.784;4.630;2023-04-03T03:29:01;7.23;;;2.90;;
26654;SDS011;14278;50.784;4.630;2023-04-03T03:31:27;3.00;;;2.70;;
26654;SDS011;14278;50.784;4.630;2023-04-03T03:33:53;3.07;;;2.60;;
26654;SDS011;14278;50.784;4.630;2023-04-03T03:36:19;2.70;;;2.50;;
26654;SDS011;14278;50.784;4.630;2023-04-03T03:38:48;2.27;;;2.17;;
26654;SDS011;14278;50.784;4.630;2023-04-03T03:41:17;2.53;;;2.33;;
26654;SDS011;14278;50.784;4.630;2023-04-03T03:43:43;4.50;;;3.30;;
26654;SDS011;14278;50.784;4.630;2023-04-03T03:46:09;1.80;;;1.70;;
26654;SDS011;14278;50.784;4.630;2023-04-03T03:48:35;3.67;;;3.17;;
26654;SDS011;14278;50.784;4.630;2023-04-03T03:51:01;2.53;;;2.17;;
26654;SDS011;14278;50.784;4.630;2023-04-03T03:53:27;4.70;;;2.73;;
26654;SDS011;14278;50.784;4.630;2023-04-03T03:55:53;4.50;;;3.07;;
26654;SDS011;14278;50.784;4.630;2023-04-03T03:58:19;2.97;;;2.73;;
26654;SDS011;14278;50.784;4.630;2023-04-03T04:00:45;2.83;;;2.63;;
26654;SDS011;14278;50.784;4.630;2023-04-03T04:03:12;3.27;;;3.00;;
26654;SDS011;14278;50.784;4.630;2023-04-03T04:05:37;3.57;;;3.03;;
26654;SDS011;14278;50.784;4.630;2023-04-03T04:08:04;3.70;;;2.70;;
26654;SDS011;14278;50.784;4.630;2023-04-03T04:10:30;3.27;;;2.73;;
26654;SDS011;14278;50.784;4.630;2023-04-03T04:12:56;2.40;;;2.23;;
26654;SDS011;14278;50.784;4.630;2023-04-03T04:15:21;3.23;;;2.87;;
26654;SDS011;14278;50.784;4.630;2023-04-03T04:17:48;3.23;;;2.57;;
26654;SDS011;14278;50.784;4.630;2023-04-03T04:20:14;3.13;;;2.90;;
26654;SDS011;14278;50.784;4.630;2023-04-03T04:22:40;2.67;;;2.43;;
26654;SDS011;14278;50.784;4.630;2023-04-03T04:25:06;3.70;;;2.40;;
26654;SDS011;14278;50.784;4.630;2023-04-03T04:27:33;4.50;;;2.73;;
26654;SDS011;14278;50.784;4.630;2023-04-03T04:29:59;3.27;;;3.00;;
26654;SDS011;14278;50.784;4.630;2023-04-03T04:32:26;2.03;;;1.93;;
26654;SDS011;14278;50.784;4.630;2023-04-03T04:34:51;5.10;;;3.30;;
26654;SDS011;14278;50.784;4.630;2023-04-03T04:37:17;2.83;;;2.53;;
26654;SDS011;14278;50.784;4.630;2023-04-03T04:39:43;3.10;;;2.80;;
26654;SDS011;14278;50.784;4.630;2023-04-03T04:42:09;2.87;;;2.67;;
26654;SDS011;14278;50.784;4.630;2023-04-03T04:44:38;10.33;;;5.60;;
26654;SDS011;14278;50.784;4.630;2023-04-03T04:47:04;13.57;;;10.63;;
26654;SDS011;14278;50.784;4.630;2023-04-03T04:49:30;20.10;;;11.53;;
26654;SDS011;14278;50.784;4.630;2023-04-03T04:51:56;6.47;;;5.10;;
26654;SDS011;14278;50.784;4.630;2023-04-03T04:54:22;5.10;;;4.70;;
26654;SDS011;14278;50.784;4.630;2023-04-03T04:56:48;5.10;;;4.60;;
26654;SDS011;14278;50.784;4.630;2023-04-03T04:59:14;2.17;;;2.07;;
26654;SDS011;14278;50.784;4.630;2023-04-03T05:01:40;2.97;;;2.70;;
26654;SDS011;14278;50.784;4.630;2023-04-03T05:04:06;3.37;;;3.07;;
26654;SDS011;14278;50.784;4.630;2023-04-03T05:06:32;3.33;;;2.63;;
26654;SDS011;14278;50.784;4.630;2023-04-03T05:09:00;3.27;;;2.97;;
26654;SDS011;14278;50.784;4.630;2023-04-03T05:11:26;3.20;;;3.00;;
26654;SDS011;14278;50.784;4.630;2023-04-03T05:13:52;3.87;;;3.47;;
26654;SDS011;14278;50.784;4.630;2023-04-03T05:16:18;3.97;;;3.50;;
26654;SDS011;14278;50.784;4.630;2023-04-03T05:18:44;3.07;;;2.23;;
26654;SDS011;14278;50.784;4.630;2023-04-03T05:21:10;4.07;;;2.97;;
26654;SDS011;14278;50.784;4.630;2023-04-03T05:23:39;2.57;;;2.40;;
26654;SDS011;14278;50.784;4.630;2023-04-03T05:26:05;2.47;;;2.37;;
26654;SDS011;14278;50.784;4.630;2023-04-03T05:28:32;2.73;;;2.53;;
26654;SDS011;14278;50.784;4.630;2023-04-03T05:30:58;3.40;;;2.60;;
26654;SDS011;14278;50.784;4.630;2023-04-03T05:33:24;2.80;;;2.60;;
26654;SDS011;14278;50.784;4.630;2023-04-03T05:35:51;4.80;;;4.23;;
26654;SDS011;14278;50.784;4.630;2023-04-03T05:38:17;10.00;;;3.20;;
26654;SDS011;14278;50.784;4.630;2023-04-03T05:40:46;4.10;;;3.17;;
26654;SDS011;14278;50.784;4.630;2023-04-03T05:43:12;3.33;;;3.13;;
26654;SDS011;14278;50.784;4.630;2023-04-03T05:45:38;3.30;;;3.00;;
26654;SDS011;14278;50.784;4.630;2023-04-03T05:48:04;3.80;;;3.37;;
26654;SDS011;14278;50.784;4.630;2023-04-03T05:50:30;3.70;;;3.20;;
26654;SDS011;14278;50.784;4.630;2023-04-03T05:52:57;2.97;;;2.77;;
26654;SDS011;14278;50.784;4.630;2023-04-03T05:55:24;4.17;;;3.27;;
26654;SDS011;14278;50.784;4.630;2023-04-03T05:57:53;8.00;;;4.30;;
26654;SDS011;14278;50.784;4.630;2023-04-03T06:00:19;2.90;;;2.70;;
26654;SDS011;14278;50.784;4.630;2023-04-03T06:02:46;3.40;;;3.10;;
26654;SDS011;14278;50.784;4.630;2023-04-03T06:05:12;2.87;;;2.67;;
26654;SDS011;14278;50.784;4.630;2023-04-03T06:07:39;4.90;;;3.47;;
26654;SDS011;14278;50.784;4.630;2023-04-03T06:10:10;5.33;;;4.00;;
26654;SDS011;14278;50.784;4.630;2023-04-03T06:12:37;7.53;;;3.60;;
26654;SDS011;14278;50.784;4.630;2023-04-03T06:15:03;2.13;;;2.00;;
26654;SDS011;14278;50.784;4.630;2023-04-03T06:17:30;4.10;;;3.43;;
26654;SDS011;14278;50.784;4.630;2023-04-03T06:19:56;3.47;;;3.07;;
26654;SDS011;14278;50.784;4.630;2023-04-03T06:22:23;3.17;;;2.90;;
26654;SDS011;14278;50.784;4.630;2023-04-03T06:24:50;4.33;;;3.87;;
26654;SDS011;14278;50.784;4.630;2023-04-03T06:27:16;6.53;;;3.73;;
26654;SDS011;14278;50.784;4.630;2023-04-03T06:29:42;3.07;;;2.77;;
26654;SDS011;14278;50.784;4.630;2023-04-03T06:32:10;3.63;;;2.50;;
26654;SDS011;14278;50.784;4.630;2023-04-03T06:34:36;3.10;;;2.80;;
26654;SDS011;14278;50.784;4.630;2023-04-03T06:37:02;5.20;;;2.90;;
26654;SDS011;14278;50.784;4.630;2023-04-03T06:39:28;3.15;;;2.85;;
26654;SDS011;14278;50.784;4.630;2023-04-03T06:41:55;3.75;;;2.40;;
26654;SDS011;14278;50.784;4.630;2023-04-03T06:44:20;3.53;;;3.00;;
26654;SDS011;14278;50.784;4.630;2023-04-03T06:46:47;2.53;;;2.33;;
26654;SDS011;14278;50.784;4.630;2023-04-03T06:49:13;1.98;;;1.88;;
26654;SDS011;14278;50.784;4.630;2023-04-03T06:51:40;3.28;;;2.80;;
26654;SDS011;14278;50.784;4.630;2023-04-03T06:54:06;2.65;;;2.40;;
26654;SDS011;14278;50.784;4.630;2023-04-03T06:56:33;2.15;;;1.98;;
26654;SDS011;14278;50.784;4.630;2023-04-03T06:58:59;3.45;;;2.42;;
26654;SDS011;14278;50.784;4.630;2023-04-03T07:01:26;2.30;;;2.17;;
26654;SDS011;14278;50.784;4.630;2023-04-03T07:03:53;2.53;;;2.30;;
26654;SDS011;14278;50.784;4.630;2023-04-03T07:06:20;5.97;;;3.05;;
26654;SDS011;14278;50.784;4.630;2023-04-03T07:08:46;2.87;;;2.60;;
26654;SDS011;14278;50.784;4.630;2023-04-03T07:11:16;2.33;;;2.17;;
26654;SDS011;14278;50.784;4.630;2023-04-03T07:13:43;2.00;;;1.90;;
26654;SDS011;14278;50.784;4.630;2023-04-03T07:16:09;3.80;;;3.43;;
26654;SDS011;14278;50.784;4.630;2023-04-03T07:18:35;2.37;;;2.23;;
26654;SDS011;14278;50.784;4.630;2023-04-03T07:21:01;4.60;;;2.90;;
26654;SDS011;14278;50.784;4.630;2023-04-03T07:23:27;3.20;;;2.90;;
26654;SDS011;14278;50.784;4.630;2023-04-03T07:25:54;3.90;;;3.60;;
26654;SDS011;14278;50.784;4.630;2023-04-03T07:28:20;3.23;;;2.97;;
26654;SDS011;14278;50.784;4.630;2023-04-03T07:30:52;3.63;;;3.30;;
26654;SDS011;14278;50.784;4.630;2023-04-03T07:33:28;3.03;;;2.83;;
26654;SDS011;14278;50.784;4.630;2023-04-03T07:35:54;2.73;;;2.53;;
26654;SDS011;14278;50.784;4.630;2023-04-03T07:38:21;3.23;;;3.00;;
26654;SDS011;14278;50.784;4.630;2023-04-03T07:40:47;2.70;;;2.50;;
26654;SDS011;14278;50.784;4.630;2023-04-03T07:43:17;2.97;;;2.77;;
26654;SDS011;14278;50.784;4.630;2023-04-03T07:45:43;3.97;;;2.83;;
26654;SDS011;14278;50.784;4.630;2023-04-03T07:48:10;2.80;;;2.20;;
26654;SDS011;14278;50.784;4.630;2023-04-03T07:50:39;2.77;;;2.50;;
26654;SDS011;14278;50.784;4.630;2023-04-03T07:53:05;3.07;;;2.73;;
26654;SDS011;14278;50.784;4.630;2023-04-03T07:55:32;2.93;;;2.73;;
26654;SDS011;14278;50.784;4.630;2023-04-03T07:58:02;3.50;;;2.80;;
26654;SDS011;14278;50.784;4.630;2023-04-03T08:00:28;3.83;;;3.10;;
26654;SDS011;14278;50.784;4.630;2023-04-03T08:02:55;3.10;;;2.80;;
26654;SDS011;14278;50.784;4.630;2023-04-03T08:05:21;3.20;;;2.63;;
26654;SDS011;14278;50.784;4.630;2023-04-03T08:07:47;3.80;;;2.93;;
26654;SDS011;14278;50.784;4.630;2023-04-03T08:10:15;2.63;;;2.43;;
26654;SDS011;14278;50.784;4.630;2023-04-03T08:12:41;3.00;;;2.70;;
26654;SDS011;14278;50.784;4.630;2023-04-03T08:15:10;3.47;;;3.07;;
26654;SDS011;14278;50.784;4.630;2023-04-03T08:17:36;2.63;;;2.43;;
26654;SDS011;14278;50.784;4.630;2023-04-03T08:20:02;2.17;;;2.07;;
26654;SDS011;14278;50.784;4.630;2023-04-03T08:22:32;2.67;;;2.47;;
26654;SDS011;14278;50.784;4.630;2023-04-03T08:24:58;3.93;;;2.63;;
26654;SDS011;14278;50.784;4.630;2023-04-03T08:27:26;1.90;;;1.80;;
26654;SDS011;14278;50.784;4.630;2023-04-03T08:29:52;2.63;;;2.10;;
26654;SDS011;14278;50.784;4.630;2023-04-03T08:32:18;3.47;;;2.90;;
26654;SDS011;14278;50.784;4.630;2023-04-03T08:34:44;2.97;;;2.17;;
26654;SDS011;14278;50.784;4.630;2023-04-03T08:37:11;1.83;;;1.67;;
26654;SDS011;14278;50.784;4.630;2023-04-03T08:39:37;2.10;;;1.80;;
26654;SDS011;14278;50.784;4.630;2023-04-03T08:42:05;4.20;;;2.27;;
26654;SDS011;14278;50.784;4.630;2023-04-03T08:47:50;4.83;;;1.37;;
26654;SDS011;14278;50.784;4.630;2023-04-03T08:50:30;2.10;;;1.53;;
26654;SDS011;14278;50.784;4.630;2023-04-03T08:53:03;3.03;;;1.77;;
26654;SDS011;14278;50.784;4.630;2023-04-03T08:55:45;2.50;;;1.93;;
26654;SDS011;14278;50.784;4.630;2023-04-03T08:58:19;1.77;;;1.67;;
26654;SDS011;14278;50.784;4.630;2023-04-03T09:00:54;1.50;;;1.40;;
26654;SDS011;14278;50.784;4.630;2023-04-03T09:03:22;1.40;;;1.30;;
26654;SDS011;14278;50.784;4.630;2023-04-03T09:08:18;1.30;;;1.20;;
26654;SDS011;14278;50.784;4.630;2023-04-03T09:10:54;1.90;;;1.73;;
26654;SDS011;14278;50.784;4.630;2023-04-03T09:17:24;1.77;;;1.40;;
26654;SDS011;14278;50.784;4.630;2023-04-03T09:24:45;4.23;;;1.53;;
26654;SDS011;14278;50.784;4.630;2023-04-03T09:27:15;1.50;;;1.40;;
26654;SDS011;14278;50.784;4.630;2023-04-03T09:29:42;1.50;;;1.40;;
26654;SDS011;14278;50.784;4.630;2023-04-03T09:40:38;1.57;;;1.47;;
26654;SDS011;14278;50.784;4.630;2023-04-03T09:46:15;1.40;;;1.30;;
26654;SDS011;14278;50.784;4.630;2023-04-03T09:48:52;2.67;;;1.90;;
26654;SDS011;14278;50.784;4.630;2023-04-03T09:51:24;2.13;;;1.73;;
26654;SDS011;14278;50.784;4.630;2023-04-03T09:53:55;2.70;;;1.97;;
26654;SDS011;14278;50.784;4.630;2023-04-03T09:56:28;2.53;;;1.67;;
26654;SDS011;14278;50.784;4.630;2023-04-03T10:06:45;1.10;;;1.10;;
26654;SDS011;14278;50.784;4.630;2023-04-03T10:14:41;2.13;;;1.30;;
26654;SDS011;14278;50.784;4.630;2023-04-03T10:19:53;2.60;;;1.73;;
26654;SDS011;14278;50.784;4.630;2023-04-03T10:22:35;1.70;;;1.10;;
26654;SDS011;14278;50.784;4.630;2023-04-03T10:28:20;2.37;;;1.23;;
26654;SDS011;14278;50.784;4.630;2023-04-03T10:30:50;6.67;;;1.63;;
26654;SDS011;14278;50.784;4.630;2023-04-03T10:42:25;0.83;;;0.83;;
26654;SDS011;14278;50.784;4.630;2023-04-03T10:48:16;1.30;;;0.87;;
26654;SDS011;14278;50.784;4.630;2023-04-03T10:56:18;1.07;;;0.97;;
26654;SDS011;14278;50.784;4.630;2023-04-03T11:01:57;1.33;;;0.60;;
26654;SDS011;14278;50.784;4.630;2023-04-03T11:04:31;0.70;;;0.70;;
26654;SDS011;14278;50.784;4.630;2023-04-03T11:07:17;0.73;;;0.70;;
26654;SDS011;14278;50.784;4.630;2023-04-03T11:13:02;0.97;;;0.87;;
26654;SDS011;14278;50.784;4.630;2023-04-03T11:15:32;0.97;;;0.77;;
26654;SDS011;14278;50.784;4.630;2023-04-03T11:18:02;6.40;;;0.77;;
26654;SDS011;14278;50.784;4.630;2023-04-03T11:20:36;0.90;;;0.90;;
26654;SDS011;14278;50.784;4.630;2023-04-03T11:25:55;2.17;;;1.03;;
26654;SDS011;14278;50.784;4.630;2023-04-03T11:28:30;0.97;;;0.83;;
26654;SDS011;14278;50.784;4.630;2023-04-03T11:36:12;0.80;;;0.73;;
26654;SDS011;14278;50.784;4.630;2023-04-03T11:38:51;1.37;;;0.97;;
26654;SDS011;14278;50.784;4.630;2023-04-03T11:41:30;0.97;;;0.90;;
26654;SDS011;14278;50.784;4.630;2023-04-03T11:44:05;1.33;;;1.10;;
26654;SDS011;14278;50.784;4.630;2023-04-03T11:46:51;1.40;;;0.70;;
26654;SDS011;14278;50.784;4.630;2023-04-03T11:50:04;4.50;;;0.90;;
26654;SDS011;14278;50.784;4.630;2023-04-03T12:05:53;0.83;;;0.73;;
26654;SDS011;14278;50.784;4.630;2023-04-03T12:08:27;0.67;;;0.67;;
26654;SDS011;14278;50.784;4.630;2023-04-03T12:24:02;0.70;;;0.70;;
26654;SDS011;14278;50.784;4.630;2023-04-03T12:26:51;1.93;;;1.10;;
26654;SDS011;14278;50.784;4.630;2023-04-03T12:38:32;3.80;;;0.77;;
26654;SDS011;14278;50.784;4.630;2023-04-03T12:43:59;0.93;;;0.80;;
26654;SDS011;14278;50.784;4.630;2023-04-03T12:46:29;0.73;;;0.73;;
26654;SDS011;14278;50.784;4.630;2023-04-03T12:51:58;7.07;;;0.83;;
26654;SDS011;14278;50.784;4.630;2023-04-03T12:59:44;0.23;;;0.23;;
26654;SDS011;14278;50.784;4.630;2023-04-03T13:02:17;0.73;;;0.53;;
26654;SDS011;14278;50.784;4.630;2023-04-03T13:04:46;0.40;;;0.40;;
26654;SDS011;14278;50.784;4.630;2023-04-03T13:07:22;0.37;;;0.37;;
26654;SDS011;14278;50.784;4.630;2023-04-03T13:10:02;2.03;;;1.00;;
26654;SDS011;14278;50.784;4.630;2023-04-03T13:15:18;1.07;;;0.70;;
26654;SDS011;14278;50.784;4.630;2023-04-03T13:17:50;1.03;;;0.80;;
26654;SDS011;14278;50.784;4.630;2023-04-03T13:25:30;1.60;;;0.93;;
26654;SDS011;14278;50.784;4.630;2023-04-03T13:28:02;0.93;;;0.77;;
26654;SDS011;14278;50.784;4.630;2023-04-03T13:30:35;0.43;;;0.43;;
26654;SDS011;14278;50.784;4.630;2023-04-03T13:33:03;1.30;;;0.80;;
26654;SDS011;14278;50.784;4.630;2023-04-03T13:35:33;0.60;;;0.60;;
26654;SDS011;14278;50.784;4.630;2023-04-03T13:38:04;1.23;;;0.80;;
26654;SDS011;14278;50.784;4.630;2023-04-03T13:40:47;0.60;;;0.60;;
26654;SDS011;14278;50.784;4.630;2023-04-03T13:43:18;1.13;;;0.83;;
26654;SDS011;14278;50.784;4.630;2023-04-03T13:45:54;0.70;;;0.70;;
26654;SDS011;14278;50.784;4.630;2023-04-03T13:48:21;1.90;;;0.73;;
26654;SDS011;14278;50.784;4.630;2023-04-03T13:51:02;0.63;;;0.47;;
26654;SDS011;14278;50.784;4.630;2023-04-03T13:53:31;0.70;;;0.70;;
26654;SDS011;14278;50.784;4.630;2023-04-03T13:58:28;1.47;;;0.93;;
26654;SDS011;14278;50.784;4.630;2023-04-03T14:01:10;0.57;;;0.53;;
26654;SDS011;14278;50.784;4.630;2023-04-03T14:03:46;1.00;;;0.90;;
26654;SDS011;14278;50.784;4.630;2023-04-03T14:06:21;4.20;;;0.70;;
26654;SDS011;14278;50.784;4.630;2023-04-03T14:08:47;0.70;;;0.70;;
26654;SDS011;14278;50.784;4.630;2023-04-03T14:11:21;0.70;;;0.70;;
26654;SDS011;14278;50.784;4.630;2023-04-03T14:13:49;0.67;;;0.60;;
26654;SDS011;14278;50.784;4.630;2023-04-03T14:16:20;0.77;;;0.77;;
26654;SDS011;14278;50.784;4.630;2023-04-03T14:18:49;1.00;;;0.90;;
26654;SDS011;14278;50.784;4.630;2023-04-03T14:21:17;0.53;;;0.53;;
26654;SDS011;14278;50.784;4.630;2023-04-03T14:23:43;2.83;;;1.30;;
26654;SDS011;14278;50.784;4.630;2023-04-03T14:26:17;1.30;;;0.87;;
26654;SDS011;14278;50.784;4.630;2023-04-03T14:28:47;0.70;;;0.70;;
26654;SDS011;14278;50.784;4.630;2023-04-03T14:31:14;1.30;;;0.90;;
26654;SDS011;14278;50.784;4.630;2023-04-03T14:33:41;0.87;;;0.50;;
26654;SDS011;14278;50.784;4.630;2023-04-03T14:36:19;0.77;;;0.77;;
26654;SDS011;14278;50.784;4.630;2023-04-03T14:38:47;0.80;;;0.80;;
26654;SDS011;14278;50.784;4.630;2023-04-03T14:41:16;1.23;;;0.80;;
26654;SDS011;14278;50.784;4.630;2023-04-03T14:43:44;0.70;;;0.70;;
26654;SDS011;14278;50.784;4.630;2023-04-03T14:46:12;3.17;;;1.03;;
26654;SDS011;14278;50.784;4.630;2023-04-03T14:48:43;1.57;;;0.90;;
26654;SDS011;14278;50.784;4.630;2023-04-03T14:51:10;0.97;;;0.90;;
26654;SDS011;14278;50.784;4.630;2023-04-03T14:53:38;1.90;;;0.87;;
26654;SDS011;14278;50.784;4.630;2023-04-03T14:56:12;1.27;;;0.83;;
26654;SDS011;14278;50.784;4.630;2023-04-03T14:58:43;1.80;;;1.00;;
26654;SDS011;14278;50.784;4.630;2023-04-03T15:01:14;1.40;;;1.00;;
26654;SDS011;14278;50.784;4.630;2023-04-03T15:03:40;1.63;;;1.20;;
26654;SDS011;14278;50.784;4.630;2023-04-03T15:06:08;1.20;;;1.10;;
26654;SDS011;14278;50.784;4.630;2023-04-03T15:08:37;1.47;;;0.70;;
26654;SDS011;14278;50.784;4.630;2023-04-03T15:11:03;0.70;;;0.70;;
26654;SDS011;14278;50.784;4.630;2023-04-03T15:13:32;0.97;;;0.70;;
26654;SDS011;14278;50.784;4.630;2023-04-03T15:15:57;0.97;;;0.80;;
26654;SDS011;14278;50.784;4.630;2023-04-03T15:18:25;0.60;;;0.60;;
26654;SDS011;14278;50.784;4.630;2023-04-03T15:20:53;2.70;;;1.07;;
26654;SDS011;14278;50.784;4.630;2023-04-03T15:23:22;0.80;;;0.80;;
26654;SDS011;14278;50.784;4.630;2023-04-03T15:25:51;1.03;;;0.93;;
26654;SDS011;14278;50.784;4.630;2023-04-03T15:30:55;0.57;;;0.50;;
26654;SDS011;14278;50.784;4.630;2023-04-03T15:33:21;0.90;;;0.80;;
26654;SDS011;14278;50.784;4.630;2023-04-03T15:35:48;1.00;;;0.80;;
26654;SDS011;14278;50.784;4.630;2023-04-03T15:38:13;1.07;;;0.97;;
26654;SDS011;14278;50.784;4.630;2023-04-03T15:40:39;0.63;;;0.60;;
26654;SDS011;14278;50.784;4.630;2023-04-03T15:43:06;1.10;;;1.03;;
26654;SDS011;14278;50.784;4.630;2023-04-03T15:45:33;2.27;;;1.30;;
26654;SDS011;14278;50.784;4.630;2023-04-03T15:48:01;0.93;;;0.93;;
26654;SDS011;14278;50.784;4.630;2023-04-03T15:50:28;1.03;;;0.87;;
26654;SDS011;14278;50.784;4.630;2023-04-03T15:52:54;0.70;;;0.70;;
26654;SDS011;14278;50.784;4.630;2023-04-03T15:55:26;0.77;;;0.70;;
26654;SDS011;14278;50.784;4.630;2023-04-03T15:57:57;0.70;;;0.70;;
26654;SDS011;14278;50.784;4.630;2023-04-03T16:00:23;1.10;;;1.00;;
26654;SDS011;14278;50.784;4.630;2023-04-03T16:02:52;2.30;;;1.23;;
26654;SDS011;14278;50.784;4.630;2023-04-03T16:05:24;1.17;;;1.00;;
26654;SDS011;14278;50.784;4.630;2023-04-03T16:07:50;6.03;;;0.90;;
26654;SDS011;14278;50.784;4.630;2023-04-03T16:10:17;1.47;;;1.00;;
26654;SDS011;14278;50.784;4.630;2023-04-03T16:12:43;1.23;;;0.80;;
26654;SDS011;14278;50.784;4.630;2023-04-03T16:15:11;1.93;;;1.30;;
26654;SDS011;14278;50.784;4.630;2023-04-03T16:17:37;2.00;;;1.07;;
26654;SDS011;14278;50.784;4.630;2023-04-03T16:20:05;2.20;;;0.80;;
26654;SDS011;14278;50.784;4.630;2023-04-03T16:22:33;1.37;;;1.00;;
26654;SDS011;14278;50.784;4.630;2023-04-03T16:25:03;0.80;;;0.80;;
26654;SDS011;14278;50.784;4.630;2023-04-03T16:27:29;0.77;;;0.77;;
26654;SDS011;14278;50.784;4.630;2023-04-03T16:30:12;1.23;;;0.90;;
26654;SDS011;14278;50.784;4.630;2023-04-03T16:32:44;1.03;;;0.93;;
26654;SDS011;14278;50.784;4.630;2023-04-03T16:35:13;2.07;;;1.13;;
26654;SDS011;14278;50.784;4.630;2023-04-03T16:37:39;0.93;;;0.93;;
26654;SDS011;14278;50.784;4.630;2023-04-03T16:40:10;0.90;;;0.90;;
26654;SDS011;14278;50.784;4.630;2023-04-03T16:42:40;2.27;;;1.40;;
26654;SDS011;14278;50.784;4.630;2023-04-03T16:45:06;1.37;;;0.87;;
26654;SDS011;14278;50.784;4.630;2023-04-03T16:47:32;1.93;;;1.10;;
26654;SDS011;14278;50.784;4.630;2023-04-03T16:49:58;4.50;;;1.33;;
26654;SDS011;14278;50.784;4.630;2023-04-03T16:52:27;0.93;;;0.80;;
26654;SDS011;14278;50.784;4.630;2023-04-03T16:54:52;4.77;;;1.07;;
26654;SDS011;14278;50.784;4.630;2023-04-03T16:57:20;1.13;;;0.77;;
26654;SDS011;14278;50.784;4.630;2023-04-03T16:59:48;0.80;;;0.80;;
26654;SDS011;14278;50.784;4.630;2023-04-03T17:02:15;1.27;;;1.17;;
26654;SDS011;14278;50.784;4.630;2023-04-03T17:04:40;0.93;;;0.83;;
26654;SDS011;14278;50.784;4.630;2023-04-03T17:07:06;1.27;;;1.07;;
26654;SDS011;14278;50.784;4.630;2023-04-03T17:09:33;0.77;;;0.77;;
26654;SDS011;14278;50.784;4.630;2023-04-03T17:11:59;3.03;;;1.13;;
26654;SDS011;14278;50.784;4.630;2023-04-03T17:14:25;0.83;;;0.70;;
26654;SDS011;14278;50.784;4.630;2023-04-03T17:16:51;0.70;;;0.70;;